sensor_id;sensor_type;location;lat;lon;timestamp;P1;durP1;ratioP1;P2;durP2;ratioP2
41261;SDS011;29629;52.532;13.352;2022-10-22T00:02:13;91.38;;;86.35;;
41261;SDS011;29629;52.532;13.352;2022-10-22T00:04:43;101.47;;;96.45;;
41261;SDS011;29629;52.532;13.352;2022-10-22T00:07:12;111.97;;;107.05;;
41261;SDS011;29629;52.532;13.352;2022-10-22T00:09:38;106.00;;;100.55;;
41261;SDS011;29629;52.532;13.352;2022-10-22T00:12:05;97.22;;;92.22;;
41261;SDS011;29629;52.532;13.352;2022-10-22T00:14:32;129.68;;;123.80;;
41261;SDS011;29629;52.532;13.352;2022-10-22T00:16:59;113.22;;;107.38;;
41261;SDS011;29629;52.532;13.352;2022-10-22T00:19:26;103.88;;;98.55;;
41261;SDS011;29629;52.532;13.352;2022-10-22T00:21:53;107.28;;;101.90;;
41261;SDS011;29629;52.532;13.352;2022-10-22T00:24:21;101.55;;;96.25;;
41261;SDS011;29629;52.532;13.352;2022-10-22T00:26:48;115.10;;;109.38;;
41261;SDS011;29629;52.532;13.352;2022-10-22T00:29:15;126.53;;;121.15;;
41261;SDS011;29629;52.532;13.352;2022-10-22T00:31:44;128.40;;;122.22;;
41261;SDS011;29629;52.532;13.352;2022-10-22T00:34:14;131.48;;;124.57;;
41261;SDS011;29629;52.532;13.352;2022-10-22T00:36:41;129.38;;;123.22;;
41261;SDS011;29629;52.532;13.352;2022-10-22T00:39:08;134.57;;;128.43;;
41261;SDS011;29629;52.532;13.352;2022-10-22T00:41:36;146.18;;;139.32;;
41261;SDS011;29629;52.532;13.352;2022-10-22T00:44:04;130.80;;;123.93;;
41261;SDS011;29629;52.532;13.352;2022-10-22T00:46:31;134.00;;;127.80;;
41261;SDS011;29629;52.532;13.352;2022-10-22T00:48:59;131.00;;;124.68;;
41261;SDS011;29629;52.532;13.352;2022-10-22T00:51:29;127.85;;;121.72;;
41261;SDS011;29629;52.532;13.352;2022-10-22T00:53:59;113.78;;;107.57;;
41261;SDS011;29629;52.532;13.352;2022-10-22T00:56:29;105.45;;;100.35;;
41261;SDS011;29629;52.532;13.352;2022-10-22T00:58:58;104.63;;;99.88;;
41261;SDS011;29629;52.532;13.352;2022-10-22T01:01:27;103.88;;;98.72;;
41261;SDS011;29629;52.532;13.352;2022-10-22T01:03:55;101.78;;;96.88;;
41261;SDS011;29629;52.532;13.352;2022-10-22T01:06:23;107.90;;;102.95;;
41261;SDS011;29629;52.532;13.352;2022-10-22T01:08:54;82.18;;;78.30;;
41261;SDS011;29629;52.532;13.352;2022-10-22T01:11:30;91.82;;;87.40;;
41261;SDS011;29629;52.532;13.352;2022-10-22T01:14:10;81.93;;;77.20;;
41261;SDS011;29629;52.532;13.352;2022-10-22T01:16:44;108.20;;;102.68;;
41261;SDS011;29629;52.532;13.352;2022-10-22T01:19:24;77.63;;;73.35;;
41261;SDS011;29629;52.532;13.352;2022-10-22T01:22:03;96.88;;;92.30;;
41261;SDS011;29629;52.532;13.352;2022-10-22T01:24:38;79.07;;;74.47;;
41261;SDS011;29629;52.532;13.352;2022-10-22T01:32:30;91.97;;;87.60;;
41261;SDS011;29629;52.532;13.352;2022-10-22T01:35:03;109.75;;;104.10;;
41261;SDS011;29629;52.532;13.352;2022-10-22T01:37:33;147.45;;;141.25;;
41261;SDS011;29629;52.532;13.352;2022-10-22T01:40:05;151.27;;;144.75;;
41261;SDS011;29629;52.532;13.352;2022-10-22T01:42:34;182.80;;;174.75;;
41261;SDS011;29629;52.532;13.352;2022-10-22T01:45:04;141.98;;;135.23;;
41261;SDS011;29629;52.532;13.352;2022-10-22T01:47:38;96.25;;;90.82;;
41261;SDS011;29629;52.532;13.352;2022-10-22T01:53:17;142.80;;;135.82;;
41261;SDS011;29629;52.532;13.352;2022-10-22T01:55:54;135.23;;;129.63;;
41261;SDS011;29629;52.532;13.352;2022-10-22T01:58:30;181.68;;;173.70;;
41261;SDS011;29629;52.532;13.352;2022-10-22T02:01:07;220.35;;;211.63;;
41261;SDS011;29629;52.532;13.352;2022-10-22T02:03:41;211.75;;;202.57;;
41261;SDS011;29629;52.532;13.352;2022-10-22T02:06:14;149.45;;;142.30;;
41261;SDS011;29629;52.532;13.352;2022-10-22T02:08:45;130.75;;;124.40;;
41261;SDS011;29629;52.532;13.352;2022-10-22T02:11:14;128.40;;;122.93;;
41261;SDS011;29629;52.532;13.352;2022-10-22T02:13:42;119.43;;;113.47;;
41261;SDS011;29629;52.532;13.352;2022-10-22T02:16:14;69.05;;;65.00;;
41261;SDS011;29629;52.532;13.352;2022-10-22T02:18:44;152.55;;;146.13;;
41261;SDS011;29629;52.532;13.352;2022-10-22T02:21:14;154.80;;;147.68;;
41261;SDS011;29629;52.532;13.352;2022-10-22T02:23:41;138.82;;;132.20;;
41261;SDS011;29629;52.532;13.352;2022-10-22T02:26:12;126.47;;;119.97;;
41261;SDS011;29629;52.532;13.352;2022-10-22T02:28:54;130.45;;;124.40;;
41261;SDS011;29629;52.532;13.352;2022-10-22T02:31:26;145.32;;;138.93;;
41261;SDS011;29629;52.532;13.352;2022-10-22T02:33:57;122.47;;;115.43;;
41261;SDS011;29629;52.532;13.352;2022-10-22T02:36:28;142.90;;;135.52;;
41261;SDS011;29629;52.532;13.352;2022-10-22T02:38:56;118.72;;;112.95;;
41261;SDS011;29629;52.532;13.352;2022-10-22T02:41:24;107.80;;;102.40;;
41261;SDS011;29629;52.532;13.352;2022-10-22T02:43:52;133.60;;;126.15;;
41261;SDS011;29629;52.532;13.352;2022-10-22T02:46:20;117.68;;;111.78;;
41261;SDS011;29629;52.532;13.352;2022-10-22T02:48:49;113.50;;;107.60;;
41261;SDS011;29629;52.532;13.352;2022-10-22T02:51:16;81.40;;;77.13;;
41261;SDS011;29629;52.532;13.352;2022-10-22T02:53:43;107.07;;;101.88;;
41261;SDS011;29629;52.532;13.352;2022-10-22T02:56:09;110.72;;;105.20;;
41261;SDS011;29629;52.532;13.352;2022-10-22T02:58:36;84.65;;;80.75;;
41261;SDS011;29629;52.532;13.352;2022-10-22T03:01:03;93.68;;;88.57;;
41261;SDS011;29629;52.532;13.352;2022-10-22T03:03:30;118.18;;;112.47;;
41261;SDS011;29629;52.532;13.352;2022-10-22T03:05:58;95.03;;;90.38;;
41261;SDS011;29629;52.532;13.352;2022-10-22T03:08:25;82.50;;;77.75;;
41261;SDS011;29629;52.532;13.352;2022-10-22T03:10:52;100.78;;;95.78;;
41261;SDS011;29629;52.532;13.352;2022-10-22T03:13:19;97.53;;;92.63;;
41261;SDS011;29629;52.532;13.352;2022-10-22T03:15:47;103.82;;;98.65;;
41261;SDS011;29629;52.532;13.352;2022-10-22T03:18:14;116.55;;;110.85;;
41261;SDS011;29629;52.532;13.352;2022-10-22T03:20:41;124.13;;;118.45;;
41261;SDS011;29629;52.532;13.352;2022-10-22T03:23:09;116.72;;;110.88;;
41261;SDS011;29629;52.532;13.352;2022-10-22T03:25:38;107.45;;;102.28;;
41261;SDS011;29629;52.532;13.352;2022-10-22T03:28:07;141.25;;;134.55;;
41261;SDS011;29629;52.532;13.352;2022-10-22T03:30:35;110.97;;;105.32;;
41261;SDS011;29629;52.532;13.352;2022-10-22T03:33:02;111.10;;;106.13;;
41261;SDS011;29629;52.532;13.352;2022-10-22T03:35:29;116.43;;;110.80;;
41261;SDS011;29629;52.532;13.352;2022-10-22T03:37:58;110.75;;;104.60;;
41261;SDS011;29629;52.532;13.352;2022-10-22T03:40:27;95.93;;;90.53;;
41261;SDS011;29629;52.532;13.352;2022-10-22T03:42:54;92.53;;;87.47;;
41261;SDS011;29629;52.532;13.352;2022-10-22T03:45:21;91.63;;;86.80;;
41261;SDS011;29629;52.532;13.352;2022-10-22T03:47:47;78.82;;;74.60;;
41261;SDS011;29629;52.532;13.352;2022-10-22T03:50:14;75.80;;;71.63;;
41261;SDS011;29629;52.532;13.352;2022-10-22T03:52:41;82.65;;;78.20;;
41261;SDS011;29629;52.532;13.352;2022-10-22T03:55:08;69.13;;;65.38;;
41261;SDS011;29629;52.532;13.352;2022-10-22T03:57:36;89.45;;;85.15;;
41261;SDS011;29629;52.532;13.352;2022-10-22T04:00:04;87.18;;;82.65;;
41261;SDS011;29629;52.532;13.352;2022-10-22T04:02:32;71.05;;;67.47;;
41261;SDS011;29629;52.532;13.352;2022-10-22T04:04:59;84.53;;;80.22;;
41261;SDS011;29629;52.532;13.352;2022-10-22T04:07:25;73.53;;;69.38;;
41261;SDS011;29629;52.532;13.352;2022-10-22T04:09:52;92.13;;;87.28;;
41261;SDS011;29629;52.532;13.352;2022-10-22T04:12:19;73.88;;;70.13;;
41261;SDS011;29629;52.532;13.352;2022-10-22T04:14:47;65.90;;;62.10;;
41261;SDS011;29629;52.532;13.352;2022-10-22T04:17:14;84.13;;;79.65;;
41261;SDS011;29629;52.532;13.352;2022-10-22T04:19:41;89.63;;;84.88;;
41261;SDS011;29629;52.532;13.352;2022-10-22T04:22:08;81.28;;;77.10;;
41261;SDS011;29629;52.532;13.352;2022-10-22T04:24:34;84.93;;;81.30;;
41261;SDS011;29629;52.532;13.352;2022-10-22T04:27:01;83.30;;;79.03;;
41261;SDS011;29629;52.532;13.352;2022-10-22T04:29:28;86.57;;;82.15;;
41261;SDS011;29629;52.532;13.352;2022-10-22T04:31:56;101.93;;;97.15;;
41261;SDS011;29629;52.532;13.352;2022-10-22T04:34:25;85.35;;;80.70;;
41261;SDS011;29629;52.532;13.352;2022-10-22T04:36:52;75.75;;;71.55;;
41261;SDS011;29629;52.532;13.352;2022-10-22T04:39:19;81.75;;;78.05;;
41261;SDS011;29629;52.532;13.352;2022-10-22T04:41:46;79.25;;;74.80;;
41261;SDS011;29629;52.532;13.352;2022-10-22T04:44:13;75.45;;;71.38;;
41261;SDS011;29629;52.532;13.352;2022-10-22T04:46:40;68.00;;;64.13;;
41261;SDS011;29629;52.532;13.352;2022-10-22T04:49:08;77.95;;;73.40;;
41261;SDS011;29629;52.532;13.352;2022-10-22T04:51:35;70.80;;;66.95;;
41261;SDS011;29629;52.532;13.352;2022-10-22T04:54:01;57.05;;;53.53;;
41261;SDS011;29629;52.532;13.352;2022-10-22T04:56:29;76.60;;;72.20;;
41261;SDS011;29629;52.532;13.352;2022-10-22T04:58:57;73.03;;;69.43;;
41261;SDS011;29629;52.532;13.352;2022-10-22T05:01:26;65.22;;;61.20;;
41261;SDS011;29629;52.532;13.352;2022-10-22T05:03:55;71.88;;;66.57;;
41261;SDS011;29629;52.532;13.352;2022-10-22T05:06:25;84.97;;;80.45;;
41261;SDS011;29629;52.532;13.352;2022-10-22T05:08:53;61.20;;;57.67;;
41261;SDS011;29629;52.532;13.352;2022-10-22T05:11:22;69.10;;;64.88;;
41261;SDS011;29629;52.532;13.352;2022-10-22T05:13:49;59.00;;;54.90;;
41261;SDS011;29629;52.532;13.352;2022-10-22T05:16:16;65.47;;;61.30;;
41261;SDS011;29629;52.532;13.352;2022-10-22T05:18:43;61.97;;;58.15;;
41261;SDS011;29629;52.532;13.352;2022-10-22T05:21:11;63.88;;;59.95;;
41261;SDS011;29629;52.532;13.352;2022-10-22T05:23:41;64.28;;;60.42;;
41261;SDS011;29629;52.532;13.352;2022-10-22T05:26:09;58.55;;;54.85;;
41261;SDS011;29629;52.532;13.352;2022-10-22T05:28:37;59.20;;;55.42;;
41261;SDS011;29629;52.532;13.352;2022-10-22T05:31:05;64.18;;;60.25;;
41261;SDS011;29629;52.532;13.352;2022-10-22T05:33:32;57.42;;;54.03;;
41261;SDS011;29629;52.532;13.352;2022-10-22T05:36:00;51.90;;;48.50;;
41261;SDS011;29629;52.532;13.352;2022-10-22T05:38:27;54.72;;;51.38;;
41261;SDS011;29629;52.532;13.352;2022-10-22T05:40:59;62.70;;;58.45;;
41261;SDS011;29629;52.532;13.352;2022-10-22T05:43:27;58.17;;;54.42;;
41261;SDS011;29629;52.532;13.352;2022-10-22T05:45:54;55.33;;;51.83;;
41261;SDS011;29629;52.532;13.352;2022-10-22T05:48:21;53.47;;;49.90;;
41261;SDS011;29629;52.532;13.352;2022-10-22T05:50:48;54.78;;;51.72;;
41261;SDS011;29629;52.532;13.352;2022-10-22T05:53:16;59.50;;;56.15;;
41261;SDS011;29629;52.532;13.352;2022-10-22T05:55:43;60.30;;;57.47;;
41261;SDS011;29629;52.532;13.352;2022-10-22T05:58:11;58.05;;;55.03;;
41261;SDS011;29629;52.532;13.352;2022-10-22T06:00:39;51.58;;;48.42;;
41261;SDS011;29629;52.532;13.352;2022-10-22T06:03:06;48.13;;;45.22;;
41261;SDS011;29629;52.532;13.352;2022-10-22T06:05:33;52.50;;;49.28;;
41261;SDS011;29629;52.532;13.352;2022-10-22T06:08:01;41.63;;;38.40;;
41261;SDS011;29629;52.532;13.352;2022-10-22T06:10:28;42.83;;;40.03;;
41261;SDS011;29629;52.532;13.352;2022-10-22T06:12:55;49.53;;;46.92;;
41261;SDS011;29629;52.532;13.352;2022-10-22T06:15:23;57.38;;;53.30;;
41261;SDS011;29629;52.532;13.352;2022-10-22T06:17:50;61.78;;;57.47;;
41261;SDS011;29629;52.532;13.352;2022-10-22T06:20:17;46.58;;;43.50;;
41261;SDS011;29629;52.532;13.352;2022-10-22T06:22:43;55.97;;;52.88;;
41261;SDS011;29629;52.532;13.352;2022-10-22T06:25:12;56.33;;;52.33;;
41261;SDS011;29629;52.532;13.352;2022-10-22T06:27:39;58.30;;;54.28;;
41261;SDS011;29629;52.532;13.352;2022-10-22T06:30:06;52.40;;;48.47;;
41261;SDS011;29629;52.532;13.352;2022-10-22T06:32:35;64.50;;;59.78;;
41261;SDS011;29629;52.532;13.352;2022-10-22T06:35:01;59.55;;;56.65;;
41261;SDS011;29629;52.532;13.352;2022-10-22T06:37:28;56.85;;;53.08;;
41261;SDS011;29629;52.532;13.352;2022-10-22T06:39:55;70.68;;;65.95;;
41261;SDS011;29629;52.532;13.352;2022-10-22T06:42:22;66.40;;;62.55;;
41261;SDS011;29629;52.532;13.352;2022-10-22T06:44:49;69.03;;;64.13;;
41261;SDS011;29629;52.532;13.352;2022-10-22T06:47:15;61.58;;;56.97;;
41261;SDS011;29629;52.532;13.352;2022-10-22T06:49:43;74.55;;;68.88;;
41261;SDS011;29629;52.532;13.352;2022-10-22T06:52:11;73.97;;;69.25;;
41261;SDS011;29629;52.532;13.352;2022-10-22T06:54:37;84.43;;;78.40;;
41261;SDS011;29629;52.532;13.352;2022-10-22T06:57:04;65.60;;;61.45;;
41261;SDS011;29629;52.532;13.352;2022-10-22T06:59:31;61.88;;;58.00;;
41261;SDS011;29629;52.532;13.352;2022-10-22T07:01:58;67.50;;;62.33;;
41261;SDS011;29629;52.532;13.352;2022-10-22T07:04:24;70.53;;;65.50;;
41261;SDS011;29629;52.532;13.352;2022-10-22T07:06:54;70.53;;;66.47;;
41261;SDS011;29629;52.532;13.352;2022-10-22T07:09:21;73.13;;;68.53;;
41261;SDS011;29629;52.532;13.352;2022-10-22T07:11:48;56.88;;;53.92;;
41261;SDS011;29629;52.532;13.352;2022-10-22T07:14:15;59.50;;;55.85;;
41261;SDS011;29629;52.532;13.352;2022-10-22T07:16:41;60.35;;;56.25;;
41261;SDS011;29629;52.532;13.352;2022-10-22T07:19:09;75.05;;;70.72;;
41261;SDS011;29629;52.532;13.352;2022-10-22T07:21:37;74.18;;;70.30;;
41261;SDS011;29629;52.532;13.352;2022-10-22T07:24:05;78.70;;;73.53;;
41261;SDS011;29629;52.532;13.352;2022-10-22T07:26:32;81.78;;;76.18;;
41261;SDS011;29629;52.532;13.352;2022-10-22T07:29:01;108.47;;;102.20;;
41261;SDS011;29629;52.532;13.352;2022-10-22T07:31:28;92.72;;;87.22;;
41261;SDS011;29629;52.532;13.352;2022-10-22T07:33:55;101.22;;;93.60;;
41261;SDS011;29629;52.532;13.352;2022-10-22T07:36:22;101.90;;;95.82;;
41261;SDS011;29629;52.532;13.352;2022-10-22T07:38:52;101.82;;;95.25;;
41261;SDS011;29629;52.532;13.352;2022-10-22T07:41:21;104.45;;;97.88;;
41261;SDS011;29629;52.532;13.352;2022-10-22T07:43:48;117.00;;;110.22;;
41261;SDS011;29629;52.532;13.352;2022-10-22T07:46:15;111.88;;;105.20;;
41261;SDS011;29629;52.532;13.352;2022-10-22T07:48:42;129.88;;;123.13;;
41261;SDS011;29629;52.532;13.352;2022-10-22T07:51:09;114.90;;;109.15;;
41261;SDS011;29629;52.532;13.352;2022-10-22T07:53:36;125.35;;;118.80;;
41261;SDS011;29629;52.532;13.352;2022-10-22T07:56:03;116.55;;;110.80;;
41261;SDS011;29629;52.532;13.352;2022-10-22T07:58:32;123.80;;;117.05;;
41261;SDS011;29629;52.532;13.352;2022-10-22T08:00:59;116.35;;;110.38;;
41261;SDS011;29629;52.532;13.352;2022-10-22T08:03:26;98.70;;;93.30;;
41261;SDS011;29629;52.532;13.352;2022-10-22T08:05:54;92.10;;;87.10;;
41261;SDS011;29629;52.532;13.352;2022-10-22T08:08:20;98.47;;;93.15;;
41261;SDS011;29629;52.532;13.352;2022-10-22T08:10:49;97.60;;;92.20;;
41261;SDS011;29629;52.532;13.352;2022-10-22T08:13:18;104.00;;;98.32;;
41261;SDS011;29629;52.532;13.352;2022-10-22T08:15:46;124.05;;;116.85;;
41261;SDS011;29629;52.532;13.352;2022-10-22T08:18:13;102.10;;;96.55;;
41261;SDS011;29629;52.532;13.352;2022-10-22T08:20:40;107.75;;;101.53;;
41261;SDS011;29629;52.532;13.352;2022-10-22T08:23:07;130.90;;;124.63;;
41261;SDS011;29629;52.532;13.352;2022-10-22T08:25:34;128.20;;;120.43;;
41261;SDS011;29629;52.532;13.352;2022-10-22T08:28:01;122.35;;;115.95;;
41261;SDS011;29629;52.532;13.352;2022-10-22T08:30:28;128.55;;;121.22;;
41261;SDS011;29629;52.532;13.352;2022-10-22T08:32:56;123.28;;;116.45;;
41261;SDS011;29629;52.532;13.352;2022-10-22T08:35:22;138.50;;;132.02;;
41261;SDS011;29629;52.532;13.352;2022-10-22T08:37:49;119.75;;;113.30;;
41261;SDS011;29629;52.532;13.352;2022-10-22T08:40:18;124.88;;;117.30;;
41261;SDS011;29629;52.532;13.352;2022-10-22T08:45:56;125.38;;;118.15;;
41261;SDS011;29629;52.532;13.352;2022-10-22T08:48:35;114.80;;;107.78;;
41261;SDS011;29629;52.532;13.352;2022-10-22T08:51:10;122.65;;;115.82;;
41261;SDS011;29629;52.532;13.352;2022-10-22T08:53:43;115.47;;;108.90;;
41261;SDS011;29629;52.532;13.352;2022-10-22T08:56:27;126.85;;;119.43;;
41261;SDS011;29629;52.532;13.352;2022-10-22T08:58:57;135.55;;;128.55;;
41261;SDS011;29629;52.532;13.352;2022-10-22T09:01:32;118.93;;;112.75;;
41261;SDS011;29629;52.532;13.352;2022-10-22T09:04:03;143.38;;;135.52;;
41261;SDS011;29629;52.532;13.352;2022-10-22T09:06:36;133.25;;;125.10;;
41261;SDS011;29629;52.532;13.352;2022-10-22T09:09:09;138.45;;;130.88;;
41261;SDS011;29629;52.532;13.352;2022-10-22T09:11:40;132.88;;;126.07;;
41261;SDS011;29629;52.532;13.352;2022-10-22T09:14:10;137.40;;;129.65;;
41261;SDS011;29629;52.532;13.352;2022-10-22T09:16:42;123.80;;;117.78;;
41261;SDS011;29629;52.532;13.352;2022-10-22T09:19:30;139.38;;;132.40;;
41261;SDS011;29629;52.532;13.352;2022-10-22T09:22:08;143.48;;;136.35;;
41261;SDS011;29629;52.532;13.352;2022-10-22T09:24:43;131.23;;;123.28;;
41261;SDS011;29629;52.532;13.352;2022-10-22T09:27:13;141.25;;;134.05;;
41261;SDS011;29629;52.532;13.352;2022-10-22T09:29:43;135.13;;;128.93;;
41261;SDS011;29629;52.532;13.352;2022-10-22T09:32:11;126.18;;;119.00;;
41261;SDS011;29629;52.532;13.352;2022-10-22T09:34:39;125.88;;;118.78;;
41261;SDS011;29629;52.532;13.352;2022-10-22T09:37:08;124.80;;;118.43;;
41261;SDS011;29629;52.532;13.352;2022-10-22T09:39:36;132.00;;;124.72;;
41261;SDS011;29629;52.532;13.352;2022-10-22T09:42:05;126.75;;;119.30;;
41261;SDS011;29629;52.532;13.352;2022-10-22T09:44:32;140.05;;;132.48;;
41261;SDS011;29629;52.532;13.352;2022-10-22T09:47:02;122.80;;;116.32;;
41261;SDS011;29629;52.532;13.352;2022-10-22T09:49:31;144.15;;;136.13;;
41261;SDS011;29629;52.532;13.352;2022-10-22T09:52:01;135.60;;;129.00;;
41261;SDS011;29629;52.532;13.352;2022-10-22T09:54:36;130.95;;;123.57;;
41261;SDS011;29629;52.532;13.352;2022-10-22T09:57:05;125.60;;;119.18;;
41261;SDS011;29629;52.532;13.352;2022-10-22T09:59:41;121.22;;;114.45;;
41261;SDS011;29629;52.532;13.352;2022-10-22T10:02:10;121.43;;;114.75;;
41261;SDS011;29629;52.532;13.352;2022-10-22T10:04:40;128.48;;;122.00;;
41261;SDS011;29629;52.532;13.352;2022-10-22T10:07:16;130.13;;;123.50;;
41261;SDS011;29629;52.532;13.352;2022-10-22T10:09:44;131.10;;;124.05;;
41261;SDS011;29629;52.532;13.352;2022-10-22T10:12:15;125.68;;;119.15;;
41261;SDS011;29629;52.532;13.352;2022-10-22T10:14:53;129.73;;;122.85;;
41261;SDS011;29629;52.532;13.352;2022-10-22T10:17:28;121.47;;;115.20;;
41261;SDS011;29629;52.532;13.352;2022-10-22T10:20:10;123.65;;;117.07;;
41261;SDS011;29629;52.532;13.352;2022-10-22T10:22:50;134.55;;;127.07;;
41261;SDS011;29629;52.532;13.352;2022-10-22T10:28:00;141.40;;;135.40;;
41261;SDS011;29629;52.532;13.352;2022-10-22T10:30:34;137.32;;;130.27;;
41261;SDS011;29629;52.532;13.352;2022-10-22T10:33:10;132.02;;;125.43;;
41261;SDS011;29629;52.532;13.352;2022-10-22T10:35:48;133.93;;;126.90;;
41261;SDS011;29629;52.532;13.352;2022-10-22T10:38:33;131.30;;;124.40;;
41261;SDS011;29629;52.532;13.352;2022-10-22T10:43:47;128.02;;;120.90;;
41261;SDS011;29629;52.532;13.352;2022-10-22T10:46:24;138.43;;;131.23;;
41261;SDS011;29629;52.532;13.352;2022-10-22T10:49:00;129.57;;;122.53;;
41261;SDS011;29629;52.532;13.352;2022-10-22T10:51:37;121.47;;;115.18;;
41261;SDS011;29629;52.532;13.352;2022-10-22T10:54:17;133.32;;;126.40;;
41261;SDS011;29629;52.532;13.352;2022-10-22T10:56:54;147.25;;;139.35;;
41261;SDS011;29629;52.532;13.352;2022-10-22T10:59:27;152.80;;;144.50;;
41261;SDS011;29629;52.532;13.352;2022-10-22T11:02:13;146.07;;;138.52;;
41261;SDS011;29629;52.532;13.352;2022-10-22T11:04:54;141.05;;;134.40;;
41261;SDS011;29629;52.532;13.352;2022-10-22T11:07:33;148.23;;;140.77;;
41261;SDS011;29629;52.532;13.352;2022-10-22T11:10:08;125.47;;;118.43;;
41261;SDS011;29629;52.532;13.352;2022-10-22T11:15:22;127.32;;;120.40;;
41261;SDS011;29629;52.532;13.352;2022-10-22T11:17:53;129.00;;;121.68;;
41261;SDS011;29629;52.532;13.352;2022-10-22T11:20:23;84.80;;;79.55;;
41261;SDS011;29629;52.532;13.352;2022-10-22T11:22:56;67.53;;;63.17;;
41261;SDS011;29629;52.532;13.352;2022-10-22T11:25:32;76.45;;;71.25;;
41261;SDS011;29629;52.532;13.352;2022-10-22T11:28:06;84.90;;;80.00;;
41261;SDS011;29629;52.532;13.352;2022-10-22T11:30:38;67.85;;;63.42;;
41261;SDS011;29629;52.532;13.352;2022-10-22T11:33:09;39.20;;;35.05;;
41261;SDS011;29629;52.532;13.352;2022-10-22T11:35:40;18.08;;;10.27;;
41261;SDS011;29629;52.532;13.352;2022-10-22T11:38:11;19.27;;;8.02;;
41261;SDS011;29629;52.532;13.352;2022-10-22T11:40:44;30.73;;;9.73;;
41261;SDS011;29629;52.532;13.352;2022-10-22T11:43:24;21.27;;;8.50;;
41261;SDS011;29629;52.532;13.352;2022-10-22T11:45:55;18.27;;;9.30;;
41261;SDS011;29629;52.532;13.352;2022-10-22T11:48:28;9.25;;;8.55;;
41261;SDS011;29629;52.532;13.352;2022-10-22T11:51:01;17.27;;;11.98;;
41261;SDS011;29629;52.532;13.352;2022-10-22T11:53:29;15.52;;;11.52;;
41261;SDS011;29629;52.532;13.352;2022-10-22T11:56:01;11.32;;;10.45;;
41261;SDS011;29629;52.532;13.352;2022-10-22T11:58:46;16.65;;;10.88;;
41261;SDS011;29629;52.532;13.352;2022-10-22T12:04:18;22.48;;;10.50;;
41261;SDS011;29629;52.532;13.352;2022-10-22T12:06:57;27.30;;;10.57;;
41261;SDS011;29629;52.532;13.352;2022-10-22T12:09:25;18.92;;;7.93;;
41261;SDS011;29629;52.532;13.352;2022-10-22T12:12:02;21.33;;;8.52;;
41261;SDS011;29629;52.532;13.352;2022-10-22T12:14:37;24.05;;;8.65;;
41261;SDS011;29629;52.532;13.352;2022-10-22T12:17:17;14.52;;;8.05;;
41261;SDS011;29629;52.532;13.352;2022-10-22T12:19:47;19.73;;;8.10;;
41261;SDS011;29629;52.532;13.352;2022-10-22T12:22:17;16.40;;;9.23;;
41261;SDS011;29629;52.532;13.352;2022-10-22T12:24:47;14.50;;;9.48;;
41261;SDS011;29629;52.532;13.352;2022-10-22T12:27:18;38.97;;;14.48;;
41261;SDS011;29629;52.532;13.352;2022-10-22T12:29:45;18.80;;;10.07;;
41261;SDS011;29629;52.532;13.352;2022-10-22T12:32:13;15.95;;;8.63;;
41261;SDS011;29629;52.532;13.352;2022-10-22T12:34:44;22.10;;;9.88;;
41261;SDS011;29629;52.532;13.352;2022-10-22T12:37:11;19.98;;;9.15;;
41261;SDS011;29629;52.532;13.352;2022-10-22T12:39:39;20.58;;;9.07;;
41261;SDS011;29629;52.532;13.352;2022-10-22T12:42:07;20.45;;;8.38;;
41261;SDS011;29629;52.532;13.352;2022-10-22T12:44:39;17.88;;;7.78;;
41261;SDS011;29629;52.532;13.352;2022-10-22T12:47:05;25.52;;;8.55;;
41261;SDS011;29629;52.532;13.352;2022-10-22T12:49:37;31.75;;;10.25;;
41261;SDS011;29629;52.532;13.352;2022-10-22T12:52:06;25.00;;;11.15;;
41261;SDS011;29629;52.532;13.352;2022-10-22T12:54:37;21.73;;;13.48;;
41261;SDS011;29629;52.532;13.352;2022-10-22T12:57:09;29.92;;;12.52;;
41261;SDS011;29629;52.532;13.352;2022-10-22T12:59:40;22.95;;;12.80;;
41261;SDS011;29629;52.532;13.352;2022-10-22T13:02:10;40.92;;;37.00;;
41261;SDS011;29629;52.532;13.352;2022-10-22T13:05:02;36.53;;;26.27;;
41261;SDS011;29629;52.532;13.352;2022-10-22T13:10:13;106.78;;;99.57;;
41261;SDS011;29629;52.532;13.352;2022-10-22T13:12:43;90.22;;;84.43;;
41261;SDS011;29629;52.532;13.352;2022-10-22T13:15:20;70.30;;;65.03;;
41261;SDS011;29629;52.532;13.352;2022-10-22T13:18:00;91.55;;;85.53;;
41261;SDS011;29629;52.532;13.352;2022-10-22T13:20:29;91.90;;;86.15;;
41261;SDS011;29629;52.532;13.352;2022-10-22T13:22:56;82.10;;;76.57;;
41261;SDS011;29629;52.532;13.352;2022-10-22T13:25:25;88.53;;;83.15;;
41261;SDS011;29629;52.532;13.352;2022-10-22T13:27:54;91.97;;;86.70;;
41261;SDS011;29629;52.532;13.352;2022-10-22T13:30:24;115.00;;;107.75;;
41261;SDS011;29629;52.532;13.352;2022-10-22T13:32:54;123.18;;;116.93;;
41261;SDS011;29629;52.532;13.352;2022-10-22T13:35:23;120.60;;;113.75;;
41261;SDS011;29629;52.532;13.352;2022-10-22T13:37:52;139.25;;;131.85;;
41261;SDS011;29629;52.532;13.352;2022-10-22T13:40:20;134.32;;;127.28;;
41261;SDS011;29629;52.532;13.352;2022-10-22T13:42:47;125.28;;;118.15;;
41261;SDS011;29629;52.532;13.352;2022-10-22T13:45:13;121.63;;;115.55;;
41261;SDS011;29629;52.532;13.352;2022-10-22T13:47:42;119.85;;;113.25;;
41261;SDS011;29629;52.532;13.352;2022-10-22T13:50:13;118.10;;;111.72;;
41261;SDS011;29629;52.532;13.352;2022-10-22T13:52:43;125.15;;;118.70;;
41261;SDS011;29629;52.532;13.352;2022-10-22T13:55:12;122.03;;;115.70;;
41261;SDS011;29629;52.532;13.352;2022-10-22T13:57:40;114.15;;;108.35;;
41261;SDS011;29629;52.532;13.352;2022-10-22T14:00:08;109.38;;;103.32;;
41261;SDS011;29629;52.532;13.352;2022-10-22T14:02:37;113.20;;;107.05;;
41261;SDS011;29629;52.532;13.352;2022-10-22T14:05:06;102.28;;;97.07;;
41261;SDS011;29629;52.532;13.352;2022-10-22T14:07:33;105.55;;;100.22;;
41261;SDS011;29629;52.532;13.352;2022-10-22T14:10:00;111.10;;;105.65;;
41261;SDS011;29629;52.532;13.352;2022-10-22T14:12:27;113.63;;;108.30;;
41261;SDS011;29629;52.532;13.352;2022-10-22T14:14:54;103.97;;;98.93;;
41261;SDS011;29629;52.532;13.352;2022-10-22T14:17:21;109.38;;;103.90;;
41261;SDS011;29629;52.532;13.352;2022-10-22T14:19:48;105.40;;;99.88;;
41261;SDS011;29629;52.532;13.352;2022-10-22T14:22:16;100.78;;;96.28;;
41261;SDS011;29629;52.532;13.352;2022-10-22T14:24:43;106.68;;;100.95;;
41261;SDS011;29629;52.532;13.352;2022-10-22T14:27:11;105.05;;;99.65;;
41261;SDS011;29629;52.532;13.352;2022-10-22T14:29:40;103.70;;;98.68;;
41261;SDS011;29629;52.532;13.352;2022-10-22T14:32:11;100.95;;;95.32;;
41261;SDS011;29629;52.532;13.352;2022-10-22T14:34:39;98.95;;;93.70;;
41261;SDS011;29629;52.532;13.352;2022-10-22T14:37:11;101.68;;;96.47;;
41261;SDS011;29629;52.532;13.352;2022-10-22T14:39:42;99.43;;;94.55;;